createdAt,value
2023-01-10T00:00:44.135Z,8.83
2023-01-10T00:03:13.125Z,8.83
2023-01-10T00:05:40.059Z,8.40
2023-01-10T00:08:07.245Z,8.97
2023-01-10T00:10:34.428Z,7.90
2023-01-10T00:13:19.658Z,8.17
2023-01-10T00:15:46.566Z,7.57
2023-01-10T00:18:13.061Z,7.60
2023-01-10T00:20:39.581Z,7.47
2023-01-10T00:23:06.006Z,7.03
2023-01-10T00:25:36.294Z,7.60
2023-01-10T00:28:10.826Z,7.53
2023-01-10T00:30:38.284Z,8.07
2023-01-10T00:33:05.989Z,7.60
2023-01-10T00:35:35.251Z,8.43
2023-01-10T00:38:05.755Z,10.00
2023-01-10T00:40:33.150Z,9.40
2023-01-10T00:43:18.293Z,10.73
2023-01-10T00:45:47.764Z,8.07
2023-01-10T00:48:14.702Z,9.87
2023-01-10T00:50:41.200Z,8.23
2023-01-10T00:53:08.013Z,9.00
2023-01-10T00:55:35.040Z,9.37
2023-01-10T00:58:01.535Z,9.90
2023-01-10T01:00:33.858Z,7.97
2023-01-10T01:03:00.336Z,7.40
2023-01-10T01:05:27.363Z,7.23
2023-01-10T01:07:53.786Z,6.57
2023-01-10T01:10:26.430Z,6.80
2023-01-10T01:12:56.985Z,6.63
2023-01-10T01:15:24.068Z,6.10
2023-01-10T01:17:50.620Z,6.53
2023-01-10T01:20:17.130Z,5.60
2023-01-10T01:22:43.615Z,5.80
2023-01-10T01:25:10.028Z,6.70
2023-01-10T01:27:38.149Z,6.40
2023-01-10T01:30:11.598Z,6.40
2023-01-10T01:32:38.526Z,5.27
2023-01-10T01:35:05.748Z,5.67
2023-01-10T01:37:32.264Z,6.47
2023-01-10T01:39:58.719Z,8.60
2023-01-10T01:42:32.126Z,4.90
2023-01-10T01:45:17.140Z,5.60
2023-01-10T01:47:45.318Z,7.60
2023-01-10T01:50:19.766Z,8.77
2023-01-10T01:52:47.496Z,6.53
2023-01-10T01:55:13.936Z,7.23
2023-01-10T01:57:40.411Z,7.57
2023-01-10T02:00:07.214Z,10.87
2023-01-10T02:02:36.520Z,9.00
2023-01-10T02:05:08.659Z,8.67
2023-01-10T02:07:37.529Z,9.47
2023-01-10T02:10:11.094Z,6.53
2023-01-10T02:12:37.785Z,7.07
2023-01-10T02:15:04.422Z,6.53
2023-01-10T02:17:30.938Z,7.33
2023-01-10T02:20:03.717Z,7.40
2023-01-10T02:22:45.533Z,8.20
2023-01-10T02:25:14.749Z,6.50
2023-01-10T02:27:44.276Z,6.23
2023-01-10T02:30:33.803Z,7.23
2023-01-10T02:33:05.804Z,5.97
2023-01-10T02:35:44.552Z,6.13
2023-01-10T02:38:21.717Z,7.03
2023-01-10T02:40:58.353Z,5.77
2023-01-10T02:43:29.199Z,6.60
2023-01-10T02:46:00.869Z,5.83
2023-01-10T02:48:27.412Z,5.40
2023-01-10T02:50:59.241Z,6.13
2023-01-10T02:53:45.954Z,5.50
2023-01-10T02:56:31.217Z,6.03
2023-01-10T02:59:08.457Z,5.77
2023-01-10T03:01:43.874Z,5.87
2023-01-10T03:04:43.364Z,5.60
2023-01-10T03:07:12.442Z,4.60
2023-01-10T03:09:44.715Z,5.40
2023-01-10T03:12:14.598Z,6.10
2023-01-10T03:14:41.637Z,6.60
2023-01-10T03:17:10.929Z,6.03
2023-01-10T03:19:49.852Z,6.77
2023-01-10T03:22:17.339Z,4.20
2023-01-10T03:24:46.865Z,5.20
2023-01-10T03:27:19.345Z,4.10
2023-01-10T03:29:50.780Z,5.50
2023-01-10T03:32:18.943Z,4.37
2023-01-10T03:34:45.830Z,5.73
2023-01-10T03:37:24.186Z,4.67
2023-01-10T03:40:05.107Z,4.70
2023-01-10T03:42:56.242Z,4.80
2023-01-10T03:45:26.914Z,6.20
2023-01-10T03:47:55.267Z,5.80
2023-01-10T03:50:23.794Z,6.83
2023-01-10T03:52:50.257Z,5.13
2023-01-10T03:55:21.618Z,6.77
2023-01-10T03:57:49.023Z,5.00
2023-01-10T04:00:16.060Z,6.13
2023-01-10T04:02:43.061Z,5.47
2023-01-10T04:05:09.645Z,7.57
2023-01-10T04:07:36.232Z,4.83
2023-01-10T04:10:03.730Z,4.20
2023-01-10T04:12:30.143Z,4.87
2023-01-10T04:14:56.598Z,6.03
2023-01-10T04:17:23.025Z,5.13
2023-01-10T04:19:49.552Z,5.37
2023-01-10T04:22:16.155Z,4.90
2023-01-10T04:24:44.312Z,7.47
2023-01-10T04:27:10.878Z,6.33
2023-01-10T04:29:37.364Z,5.10
2023-01-10T04:32:03.834Z,6.53
2023-01-10T04:34:30.316Z,4.30
2023-01-10T04:36:56.801Z,4.63
2023-01-10T04:39:23.253Z,5.90
2023-01-10T04:41:49.948Z,4.77
2023-01-10T04:44:16.379Z,5.40
2023-01-10T04:46:42.817Z,4.70
2023-01-10T04:49:09.721Z,6.20
2023-01-10T04:51:36.176Z,7.30
2023-01-10T04:54:02.616Z,5.60
2023-01-10T04:56:29.093Z,29.50
2023-01-10T04:58:56.301Z,9.70
2023-01-10T05:01:23.638Z,10.40
2023-01-10T05:03:50.769Z,10.40
2023-01-10T05:06:17.857Z,7.07
2023-01-10T05:08:44.760Z,6.43
2023-01-10T05:11:11.472Z,8.23
2023-01-10T05:13:37.953Z,7.33
2023-01-10T05:16:04.709Z,5.17
2023-01-10T05:18:31.131Z,5.53
2023-01-10T05:21:01.563Z,6.43
2023-01-10T05:23:28.680Z,6.63
2023-01-10T05:25:55.435Z,5.60
2023-01-10T05:28:22.277Z,9.23
2023-01-10T05:30:48.894Z,7.23
2023-01-10T05:33:15.387Z,5.23
2023-01-10T05:35:41.888Z,4.93
2023-01-10T05:38:08.451Z,6.50
2023-01-10T05:40:34.909Z,7.07
2023-01-10T05:43:01.470Z,5.40
2023-01-10T05:45:27.918Z,8.03
2023-01-10T05:47:54.373Z,8.97
2023-01-10T05:50:20.893Z,7.87
2023-01-10T05:52:47.424Z,9.40
2023-01-10T05:55:13.860Z,10.97
2023-01-10T05:57:40.322Z,8.80
2023-01-10T06:00:07.151Z,9.67
2023-01-10T06:02:33.658Z,7.50
2023-01-10T06:05:00.285Z,5.57
2023-01-10T06:07:26.811Z,5.67
2023-01-10T06:09:53.275Z,8.20
2023-01-10T06:12:19.795Z,6.93
2023-01-10T06:14:46.242Z,6.50
2023-01-10T06:17:13.132Z,7.73
2023-01-10T06:19:39.626Z,5.57
2023-01-10T06:22:06.039Z,4.70
2023-01-10T06:24:32.495Z,5.93
2023-01-10T06:26:59.125Z,6.77
2023-01-10T06:29:25.571Z,6.00
2023-01-10T06:31:51.991Z,6.33
2023-01-10T06:34:18.524Z,5.47
2023-01-10T06:36:45.026Z,6.43
2023-01-10T06:39:11.498Z,6.17
2023-01-10T06:41:37.996Z,6.83
2023-01-10T06:44:04.438Z,9.90
2023-01-10T06:46:30.882Z,19.77
2023-01-10T06:48:57.341Z,8.47
2023-01-10T06:51:23.766Z,9.63
2023-01-10T06:53:50.211Z,8.17
2023-01-10T06:56:16.687Z,9.20
2023-01-10T06:58:43.226Z,8.50
2023-01-10T07:01:18.092Z,8.40
2023-01-10T07:03:44.771Z,8.13
2023-01-10T07:06:11.442Z,12.23
2023-01-10T07:08:42.034Z,8.00
2023-01-10T07:11:09.120Z,9.63
2023-01-10T07:13:35.999Z,10.43
2023-01-10T07:16:12.792Z,10.10
2023-01-10T07:18:40.254Z,6.73
2023-01-10T07:21:07.002Z,6.80
2023-01-10T07:23:33.970Z,7.53
2023-01-10T07:26:03.075Z,9.40
2023-01-10T07:28:29.601Z,6.50
2023-01-10T07:30:58.720Z,8.17
2023-01-10T07:33:25.176Z,12.83
2023-01-10T07:35:51.620Z,12.90
2023-01-10T07:38:18.161Z,16.10
2023-01-10T07:40:44.687Z,13.63
2023-01-10T07:43:11.097Z,13.93
2023-01-10T07:45:37.543Z,14.90
2023-01-10T07:48:05.154Z,14.00
2023-01-10T07:50:33.241Z,14.40
2023-01-10T07:53:00.232Z,13.43
2023-01-10T07:55:27.755Z,13.63
2023-01-10T07:57:54.499Z,15.60
2023-01-10T08:00:21.099Z,16.27
2023-01-10T08:02:47.819Z,17.90
2023-01-10T08:05:14.813Z,23.90
2023-01-10T08:07:41.326Z,29.70
2023-01-10T08:10:08.251Z,31.20
2023-01-10T08:12:34.969Z,23.80
2023-01-10T08:15:01.509Z,29.50
2023-01-10T08:17:27.944Z,27.03
2023-01-10T08:19:54.410Z,27.63
2023-01-10T08:22:20.870Z,26.33
2023-01-10T08:24:47.344Z,23.40
2023-01-10T08:27:13.794Z,25.10
2023-01-10T08:29:40.293Z,25.13
2023-01-10T08:32:06.737Z,26.23
2023-01-10T08:34:33.226Z,26.50
2023-01-10T08:36:59.692Z,25.03
2023-01-10T08:39:26.854Z,25.00
2023-01-10T08:41:53.524Z,18.77
2023-01-10T08:44:20.103Z,17.37
2023-01-10T08:46:46.846Z,22.90
2023-01-10T08:49:13.418Z,21.17
2023-01-10T08:51:39.886Z,25.93
2023-01-10T08:54:06.447Z,27.00
2023-01-10T08:56:32.968Z,24.30
2023-01-10T08:58:59.411Z,27.03
2023-01-10T09:01:25.966Z,20.50
2023-01-10T09:03:52.532Z,36.60
2023-01-10T09:06:19.058Z,24.07
2023-01-10T09:08:45.491Z,22.67
2023-01-10T09:11:11.934Z,17.83
2023-01-10T09:13:40.191Z,16.57
2023-01-10T09:16:06.828Z,17.97
2023-01-10T09:18:34.197Z,17.53
2023-01-10T09:21:01.289Z,20.47
2023-01-10T09:23:27.807Z,19.30
2023-01-10T09:25:55.889Z,18.63
2023-01-10T09:28:24.304Z,20.37
2023-01-10T09:30:51.170Z,21.63
2023-01-10T09:33:17.661Z,22.53
2023-01-10T09:35:44.605Z,22.40
2023-01-10T09:38:12.210Z,20.97
2023-01-10T09:40:53.795Z,25.33
2023-01-10T09:43:30.517Z,29.67
2023-01-10T09:46:02.220Z,29.83
2023-01-10T09:48:28.671Z,30.13
2023-01-10T09:51:24.659Z,25.90
2023-01-10T09:53:53.759Z,45.47
2023-01-10T09:56:22.393Z,31.40
2023-01-10T09:58:50.105Z,31.20
2023-01-10T10:01:18.525Z,28.40
2023-01-10T10:03:47.759Z,25.17
2023-01-10T10:06:14.648Z,23.13
2023-01-10T10:08:42.317Z,21.50
2023-01-10T10:11:26.654Z,19.97
2023-01-10T10:14:18.041Z,21.73
2023-01-10T10:16:53.412Z,18.60
2023-01-10T10:19:19.792Z,18.90
2023-01-10T10:21:46.209Z,17.63
2023-01-10T10:24:26.103Z,19.93
2023-01-10T10:26:52.491Z,24.00
2023-01-10T10:29:34.616Z,17.67
2023-01-10T10:32:07.358Z,18.60
2023-01-10T10:34:38.307Z,17.07
2023-01-10T10:37:10.820Z,18.50
2023-01-10T10:39:45.455Z,17.83
2023-01-10T10:42:13.374Z,16.53
2023-01-10T10:44:41.844Z,15.80
2023-01-10T10:47:13.984Z,19.37
2023-01-10T10:49:43.161Z,19.13
2023-01-10T10:52:17.046Z,22.93
2023-01-10T10:54:43.424Z,17.33
2023-01-10T10:57:11.932Z,13.20
2023-01-10T10:59:38.481Z,12.53
2023-01-10T11:02:16.830Z,16.30
2023-01-10T11:04:43.569Z,11.93
2023-01-10T11:07:12.760Z,14.03
2023-01-10T11:09:41.556Z,14.50
2023-01-10T11:12:14.208Z,19.90
2023-01-10T11:14:42.420Z,15.87
2023-01-10T11:17:40.978Z,15.03
2023-01-10T11:20:14.497Z,15.73
2023-01-10T11:22:46.389Z,16.07
2023-01-10T11:25:14.898Z,14.97
2023-01-10T11:27:47.096Z,14.80
2023-01-10T11:30:23.968Z,13.43
2023-01-10T11:32:54.689Z,14.43
2023-01-10T11:35:24.185Z,12.67
2023-01-10T11:37:58.730Z,12.87
2023-01-10T11:40:28.906Z,12.33
2023-01-10T11:42:59.001Z,11.33
2023-01-10T11:45:27.956Z,13.77
2023-01-10T11:48:08.285Z,12.30
2023-01-10T11:50:36.726Z,14.00
2023-01-10T11:53:04.061Z,14.33
2023-01-10T11:55:32.038Z,13.70
2023-01-10T11:58:09.660Z,14.17
2023-01-10T12:00:46.891Z,17.70
2023-01-10T12:03:32.829Z,19.67
2023-01-10T12:06:00.997Z,16.27
2023-01-10T12:08:31.488Z,17.50
2023-01-10T12:10:59.155Z,16.77
2023-01-10T12:13:28.080Z,21.67
2023-01-10T12:16:14.337Z,16.33
2023-01-10T12:18:40.731Z,24.17
2023-01-10T12:21:08.329Z,40.50
2023-01-10T12:23:40.388Z,50.70
2023-01-10T12:26:12.263Z,42.47
2023-01-10T12:28:41.298Z,44.87
2023-01-10T12:31:12.211Z,38.10
2023-01-10T12:33:51.454Z,27.10
2023-01-10T12:36:26.656Z,20.93
2023-01-10T12:39:05.491Z,16.93
2023-01-10T12:42:09.136Z,20.97
2023-01-10T12:44:35.626Z,19.67
2023-01-10T12:47:09.235Z,48.63
2023-01-10T12:49:38.928Z,24.83
2023-01-10T12:52:09.759Z,18.70
2023-01-10T12:54:36.313Z,17.77
2023-01-10T12:57:05.095Z,19.23
2023-01-10T12:59:40.123Z,19.53
2023-01-10T13:02:11.153Z,19.23
2023-01-10T13:04:38.242Z,21.03
2023-01-10T13:07:05.426Z,22.83
2023-01-10T13:09:32.520Z,28.33
2023-01-10T13:11:59.113Z,23.00
2023-01-10T13:14:35.577Z,21.20
2023-01-10T13:17:16.651Z,20.27
2023-01-10T13:19:43.095Z,17.60
2023-01-10T13:22:28.223Z,23.97
2023-01-10T13:24:55.723Z,18.37
2023-01-10T13:27:23.804Z,19.57
2023-01-10T13:29:51.162Z,19.20
2023-01-10T13:32:27.118Z,17.53
2023-01-10T13:34:53.856Z,17.90
2023-01-10T13:37:25.843Z,22.27
2023-01-10T13:39:57.263Z,16.87
2023-01-10T13:42:42.414Z,15.27
2023-01-10T13:45:12.054Z,21.93
2023-01-10T13:47:43.308Z,23.53
2023-01-10T13:50:25.057Z,20.10
2023-01-10T13:52:51.441Z,16.40
2023-01-10T13:55:55.786Z,14.70
2023-01-10T13:59:00.768Z,18.87
2023-01-10T14:01:56.318Z,22.93
2023-01-10T14:04:24.168Z,15.63
2023-01-10T14:06:58.903Z,31.83
2023-01-10T14:09:25.312Z,18.63
2023-01-10T14:11:53.319Z,16.50
2023-01-10T14:14:19.745Z,18.30
2023-01-10T14:16:48.302Z,15.67
2023-01-10T14:19:28.419Z,18.83
2023-01-10T14:21:56.371Z,18.13
2023-01-10T14:24:25.713Z,18.57
2023-01-10T14:26:55.342Z,16.20
2023-01-10T14:29:23.322Z,19.27
2023-01-10T14:31:52.888Z,18.80
2023-01-10T14:34:25.081Z,19.37
2023-01-10T14:36:59.049Z,21.23
2023-01-10T14:39:26.512Z,17.57
2023-01-10T14:41:54.928Z,17.87
2023-01-10T14:44:30.896Z,20.40
2023-01-10T14:46:58.284Z,15.00
2023-01-10T14:49:26.409Z,16.63
2023-01-10T14:52:16.331Z,16.43
2023-01-10T14:54:43.029Z,22.50
2023-01-10T14:57:19.651Z,16.53
2023-01-10T14:59:46.574Z,15.03
2023-01-10T15:02:23.152Z,14.70
2023-01-10T15:04:54.461Z,15.30
2023-01-10T15:07:23.023Z,16.23
2023-01-10T15:09:53.712Z,23.43
2023-01-10T15:12:21.277Z,23.67
2023-01-10T15:14:49.373Z,17.43
2023-01-10T15:17:20.518Z,18.77
2023-01-10T15:19:48.199Z,32.50
2023-01-10T15:22:28.927Z,36.87
2023-01-10T15:24:59.763Z,21.50
2023-01-10T15:27:26.513Z,26.53
2023-01-10T15:29:53.070Z,43.97
2023-01-10T15:32:32.794Z,93.70
2023-01-10T15:34:59.956Z,76.43
2023-01-10T15:37:33.984Z,55.17
2023-01-10T15:40:01.622Z,63.70
2023-01-10T15:42:28.390Z,70.70
2023-01-10T15:44:56.095Z,50.03
2023-01-10T15:47:49.728Z,36.33
2023-01-10T15:50:20.397Z,53.90
2023-01-10T15:52:48.520Z,46.43
2023-01-10T15:55:33.743Z,43.43
2023-01-10T15:58:01.440Z,54.70
2023-01-10T16:00:29.548Z,38.97
2023-01-10T16:02:56.561Z,20.80
2023-01-10T16:05:23.503Z,31.63
2023-01-10T16:07:50.192Z,32.80
2023-01-10T16:10:21.646Z,28.17
2023-01-10T16:13:07.043Z,19.73
2023-01-10T16:15:35.669Z,23.43
2023-01-10T16:18:02.397Z,18.33
2023-01-10T16:20:48.775Z,24.23
2023-01-10T16:23:17.492Z,30.30
2023-01-10T16:25:45.574Z,29.77
2023-01-10T16:28:12.741Z,27.27
2023-01-10T16:30:43.741Z,21.23
2023-01-10T16:33:11.611Z,18.30
2023-01-10T16:35:38.324Z,31.00
2023-01-10T16:38:04.874Z,120.83
2023-01-10T16:40:38.963Z,188.10
2023-01-10T16:43:17.931Z,101.43
2023-01-10T16:45:44.415Z,170.07
2023-01-10T16:48:11.249Z,89.60
2023-01-10T16:50:38.115Z,261.37
2023-01-10T16:53:06.295Z,88.30
2023-01-10T16:55:39.074Z,145.47
2023-01-10T16:58:05.669Z,56.53
2023-01-10T17:00:32.269Z,110.50
2023-01-10T17:02:59.276Z,49.10
2023-01-10T17:05:25.819Z,40.40
2023-01-10T17:07:52.291Z,31.27
2023-01-10T17:10:19.009Z,29.53
2023-01-10T17:12:45.798Z,27.67
2023-01-10T17:15:14.128Z,22.13
2023-01-10T17:17:44.390Z,17.90
2023-01-10T17:20:12.001Z,23.97
2023-01-10T17:22:38.629Z,29.37
2023-01-10T17:25:05.322Z,22.17
2023-01-10T17:27:31.951Z,23.03
2023-01-10T17:29:58.837Z,22.73
2023-01-10T17:32:25.253Z,24.13
2023-01-10T17:34:51.881Z,27.40
2023-01-10T17:37:18.515Z,24.87
2023-01-10T17:39:45.009Z,27.10
2023-01-10T17:42:18.884Z,26.03
2023-01-10T17:44:45.699Z,42.67
2023-01-10T17:47:14.999Z,60.60
2023-01-10T17:52:30.626Z,35.10
2023-01-10T17:54:59.481Z,88.67
2023-01-10T17:57:26.235Z,75.60
2023-01-10T18:00:08.310Z,108.10
2023-01-10T18:02:36.467Z,101.43
2023-01-10T18:05:03.606Z,92.00
2023-01-10T18:07:30.285Z,53.57
2023-01-10T18:09:58.127Z,31.93
2023-01-10T18:12:24.689Z,29.43
2023-01-10T18:14:51.468Z,25.63
2023-01-10T18:17:19.315Z,29.63
2023-01-10T18:19:46.116Z,44.03
2023-01-10T18:22:31.711Z,42.20
2023-01-10T18:24:58.517Z,106.17
2023-01-10T18:27:25.567Z,70.87
2023-01-10T18:29:52.574Z,81.17
2023-01-10T18:32:19.920Z,71.03
2023-01-10T18:34:49.401Z,39.70
2023-01-10T18:37:19.733Z,55.10
2023-01-10T18:39:47.491Z,41.20
2023-01-10T18:42:14.582Z,57.77
2023-01-10T18:44:41.547Z,57.33
2023-01-10T18:47:08.504Z,55.00
2023-01-10T18:49:38.743Z,37.90
2023-01-10T18:52:06.680Z,69.30
2023-01-10T18:54:33.601Z,82.47
2023-01-10T18:57:00.333Z,50.37
2023-01-10T18:59:27.320Z,108.80
2023-01-10T19:01:54.059Z,77.50
2023-01-10T19:04:20.894Z,60.47
2023-01-10T19:06:47.840Z,88.50
2023-01-10T19:09:14.670Z,114.10
2023-01-10T19:11:41.494Z,53.23
2023-01-10T19:14:08.338Z,93.47
2023-01-10T19:16:35.253Z,83.73
2023-01-10T19:19:09.325Z,68.43
2023-01-10T19:21:41.234Z,46.37
2023-01-10T19:24:19.639Z,57.27
2023-01-10T19:26:46.513Z,42.80
2023-01-10T19:29:13.245Z,44.97
2023-01-10T19:31:40.173Z,47.77
2023-01-10T19:34:07.257Z,28.53
2023-01-10T19:36:35.884Z,34.43
2023-01-10T19:39:03.056Z,32.10
2023-01-10T19:41:30.026Z,28.53
2023-01-10T19:44:00.868Z,22.27
2023-01-10T19:46:28.241Z,27.97
2023-01-10T19:48:55.531Z,31.70
2023-01-10T19:51:22.316Z,21.50
2023-01-10T19:53:49.299Z,24.33
2023-01-10T19:56:19.784Z,30.23
2023-01-10T19:58:46.690Z,23.00
2023-01-10T20:01:17.716Z,24.97
2023-01-10T20:03:47.703Z,20.97
2023-01-10T20:06:17.231Z,21.17
2023-01-10T20:08:44.522Z,18.03
2023-01-10T20:11:11.351Z,16.10
2023-01-10T20:13:42.131Z,22.87
2023-01-10T20:16:08.858Z,14.57
2023-01-10T20:18:35.650Z,12.53
2023-01-10T20:21:08.084Z,10.77
2023-01-10T20:23:39.014Z,9.30
2023-01-10T20:26:07.450Z,13.00
2023-01-10T20:28:34.507Z,12.50
2023-01-10T20:31:01.442Z,12.70
2023-01-10T20:33:28.799Z,19.70
2023-01-10T20:35:59.863Z,19.30
2023-01-10T20:38:27.492Z,17.17
2023-01-10T20:40:58.966Z,19.57
2023-01-10T20:43:25.928Z,21.40
2023-01-10T20:45:52.788Z,20.67
2023-01-10T20:48:19.691Z,15.73
2023-01-10T20:50:47.379Z,21.40
2023-01-10T20:53:17.013Z,21.43
2023-01-10T20:55:46.803Z,21.43
2023-01-10T20:58:17.599Z,19.07
2023-01-10T21:00:44.440Z,22.33
2023-01-10T21:03:11.236Z,20.77
2023-01-10T21:05:39.499Z,27.63
2023-01-10T21:08:06.533Z,30.37
2023-01-10T21:10:33.358Z,21.73
2023-01-10T21:13:00.017Z,18.43
2023-01-10T21:15:26.929Z,15.63
2023-01-10T21:17:53.668Z,17.17
2023-01-10T21:20:20.724Z,16.97
2023-01-10T21:22:47.352Z,17.83
2023-01-10T21:25:14.263Z,17.87
2023-01-10T21:27:41.057Z,15.80
2023-01-10T21:30:09.184Z,16.90
2023-01-10T21:32:35.755Z,16.80
2023-01-10T21:35:02.400Z,15.13
2023-01-10T21:37:29.084Z,21.73
2023-01-10T21:39:56.183Z,59.20
2023-01-10T21:42:35.311Z,57.10
2023-01-10T21:45:02.189Z,57.43
2023-01-10T21:47:28.768Z,79.70
2023-01-10T21:49:55.330Z,66.20
2023-01-10T21:52:21.941Z,66.23
2023-01-10T21:54:48.597Z,86.20
2023-01-10T21:57:19.372Z,39.30
2023-01-10T21:59:46.005Z,44.17
2023-01-10T22:02:14.063Z,91.57
2023-01-10T22:04:41.606Z,60.67
2023-01-10T22:07:08.148Z,52.03
2023-01-10T22:09:36.410Z,28.57
2023-01-10T22:12:03.065Z,23.83
2023-01-10T22:14:29.496Z,26.07
2023-01-10T22:16:55.926Z,45.07
2023-01-10T22:19:22.432Z,26.70
2023-01-10T22:21:48.866Z,50.83
2023-01-10T22:24:15.332Z,21.13
2023-01-10T22:26:41.806Z,13.73
2023-01-10T22:29:08.227Z,25.10
2023-01-10T22:31:34.775Z,11.93
2023-01-10T22:34:01.278Z,10.73
2023-01-10T22:36:30.267Z,10.70
2023-01-10T22:38:56.668Z,12.10
2023-01-10T22:41:27.469Z,14.47
2023-01-10T22:43:54.439Z,14.00
2023-01-10T22:46:21.181Z,10.83
2023-01-10T22:48:48.100Z,11.50
2023-01-10T22:51:15.129Z,14.33
2023-01-10T22:53:41.747Z,12.50
2023-01-10T22:56:10.677Z,10.87
2023-01-10T22:58:37.568Z,15.03
2023-01-10T23:01:04.614Z,8.73
2023-01-10T23:03:31.266Z,11.80
2023-01-10T23:05:58.259Z,9.27
2023-01-10T23:08:25.715Z,11.97
2023-01-10T23:10:54.075Z,12.13
2023-01-10T23:13:21.266Z,10.43
2023-01-10T23:15:55.084Z,13.60
2023-01-10T23:18:21.572Z,10.57
2023-01-10T23:20:48.641Z,10.70
2023-01-10T23:23:15.116Z,12.03
2023-01-10T23:25:41.563Z,11.03
2023-01-10T23:28:08.015Z,12.20
2023-01-10T23:30:34.517Z,11.00
2023-01-10T23:33:01.102Z,12.37
2023-01-10T23:35:27.671Z,9.27
2023-01-10T23:37:54.282Z,8.83
2023-01-10T23:40:20.899Z,8.97
2023-01-10T23:42:47.415Z,9.30
2023-01-10T23:45:13.926Z,8.83
2023-01-10T23:47:40.393Z,10.23
2023-01-10T23:50:07.105Z,8.23
2023-01-10T23:52:33.638Z,8.53
2023-01-10T23:55:00.134Z,8.37
2023-01-10T23:57:26.618Z,9.83
2023-01-10T23:59:53.141Z,6.83
